ADDS METAR Data INFO
IDs: Format: Raw Decoded Include TAF

Data at: 2011 UTC 19 Oct 2017

K2J9 191955Z AUTO 05005KT 10SM CLR 28/15 A3016 RMK AO2
K2J9 191935Z AUTO VRB06G11KT 10SM CLR 28/15 A3016 RMK AO2
K2J9 191915Z AUTO VRB03KT 10SM CLR 28/15 A3016 RMK AO2
K2J9 191855Z AUTO 03004KT 10SM CLR 27/15 A3017 RMK AO2
K2J9 191835Z AUTO VRB03G10KT 10SM CLR 27/15 A3018 RMK AO2
K2J9 191815Z AUTO VRB05G12KT 10SM CLR 27/15 A3019 RMK AO2
K2J9 191755Z AUTO VRB04G10KT 10SM CLR 27/15 A3020 RMK AO2
K2J9 191735Z AUTO 04005G11KT 10SM CLR 26/15 A3022 RMK AO2
K2J9 191715Z AUTO VRB04G12KT 10SM CLR 26/15 A3022 RMK AO2
K2J9 191655Z AUTO VRB04KT 10SM CLR 26/14 A3023 RMK AO2
K2J9 191635Z AUTO VRB04KT 10SM CLR 25/14 A3024 RMK AO2
K2J9 191615Z AUTO VRB04KT 10SM CLR 25/14 A3025 RMK AO2
K2J9 191555Z AUTO VRB05KT 10SM CLR 24/14 A3025 RMK AO2
K2J9 191535Z AUTO 05004KT 10SM CLR 24/14 A3025 RMK AO2
K2J9 191515Z AUTO 00000KT 10SM CLR 23/14 A3025 RMK AO2
K2J9 191455Z AUTO 05005KT 10SM CLR 22/15 A3025 RMK AO2
K2J9 191435Z AUTO VRB04KT 10SM CLR 21/15 A3025 RMK AO2
K2J9 191415Z AUTO 00000KT 10SM CLR 20/15 A3024 RMK AO2
K2J9 191355Z AUTO 00000KT 10SM CLR 19/15 A3024 RMK AO2
K2J9 191335Z AUTO VRB03KT 10SM CLR 18/15 A3023 RMK AO2
K2J9 191315Z AUTO 04004KT 10SM CLR 17/14 A3023 RMK AO2
K2J9 191255Z AUTO 00000KT 10SM CLR 16/14 A3022 RMK AO2
K2J9 191235Z AUTO 00000KT 10SM CLR 15/13 A3021 RMK AO2
K2J9 191215Z AUTO 00000KT 10SM CLR 14/13 A3021 RMK AO2
K2J9 191155Z AUTO 00000KT 10SM CLR 14/13 A3021 RMK AO2
K2J9 191135Z AUTO 00000KT 10SM CLR 14/13 A3020 RMK AO2
K2J9 191115Z AUTO 00000KT 10SM CLR 14/13 A3020 RMK AO2
K2J9 191055Z AUTO 00000KT 10SM CLR 14/13 A3020 RMK AO2
K2J9 191035Z AUTO 00000KT 10SM CLR 14/13 A3019 RMK AO2
K2J9 191015Z AUTO 00000KT 10SM FEW028 FEW040 15/14 A3019 RMK AO2
K2J9 190955Z AUTO 00000KT 10SM CLR 15/14 A3019 RMK AO2
K2J9 190935Z AUTO 00000KT 10SM CLR 15/14 A3019 RMK AO2
K2J9 190915Z AUTO 00000KT 10SM FEW017 16/14 A3018 RMK AO2
K2J9 190855Z AUTO 00000KT 10SM CLR 16/14 A3018 RMK AO2
K2J9 190835Z AUTO 00000KT 10SM CLR 16/14 A3018 RMK AO2
K2J9 190815Z AUTO 00000KT 10SM CLR 16/14 A3019 RMK AO2
K2J9 190755Z AUTO 00000KT 10SM CLR 15/14 A3019 RMK AO2
K2J9 190735Z AUTO 00000KT 10SM FEW043 15/14 A3019 RMK AO2
K2J9 190715Z AUTO 00000KT 10SM FEW029 SCT043 15/14 A3019 RMK AO2
K2J9 190655Z AUTO 00000KT 10SM SCT042 15/14 A3020 RMK AO2
K2J9 190635Z AUTO 00000KT 10SM SCT044 15/14 A3020 RMK AO2
K2J9 190615Z AUTO 00000KT 10SM FEW043 15/14 A3020 RMK AO2
K2J9 190555Z AUTO 00000KT 10SM CLR 15/14 A3021 RMK AO2
K2J9 190535Z AUTO 00000KT 10SM CLR 15/14 A3021 RMK AO2
K2J9 190515Z AUTO 00000KT 10SM CLR 15/14 A3022 RMK AO2
K2J9 190455Z AUTO 00000KT 10SM CLR 16/14 A3022 RMK AO2
K2J9 190435Z AUTO 00000KT 10SM CLR 16/15 A3023 RMK AO2
K2J9 190415Z AUTO 00000KT 10SM CLR 17/15 A3023 RMK AO2
K2J9 190355Z AUTO 00000KT 10SM CLR 17/15 A3023 RMK AO2
K2J9 190335Z AUTO 00000KT 10SM CLR 17/15 A3023 RMK AO2
K2J9 190315Z AUTO 00000KT 10SM CLR 18/15 A3023 RMK AO2
K2J9 190255Z AUTO 00000KT 10SM CLR 18/15 A3023 RMK AO2
K2J9 190235Z AUTO 00000KT 10SM FEW044 19/15 A3022 RMK AO2
K2J9 190215Z AUTO 00000KT 10SM FEW036 FEW044 19/15 A3022 RMK AO2
K2J9 190155Z AUTO 00000KT 10SM FEW035 FEW049 20/15 A3021 RMK AO2
K2J9 190135Z AUTO 00000KT 10SM FEW035 FEW041 SCT049 18/16 A3021 RMK AO2
K2J9 190115Z AUTO 00000KT 10SM SCT041 SCT049 19/16 A3021 RMK AO2
K2J9 190055Z AUTO 00000KT 10SM SCT039 BKN046 20/16 A3021 RMK AO2
K2J9 190035Z AUTO 00000KT 10SM BKN040 BKN046 20/16 A3020 RMK AO2
K2J9 190015Z AUTO 00000KT 10SM SCT039 20/16 A3019 RMK AO2
K2J9 182355Z AUTO 00000KT 10SM SCT039 21/16 A3018 RMK AO2
K2J9 182335Z AUTO 00000KT 10SM SCT040 21/17 A3018 RMK AO2
K2J9 182315Z AUTO 00000KT 10SM FEW044 21/17 A3018 RMK AO2
K2J9 182255Z AUTO 00000KT 10SM FEW044 22/17 A3017 RMK AO2
K2J9 182235Z AUTO 00000KT 10SM CLR 24/16 A3017 RMK AO2
K2J9 182215Z AUTO 00000KT 10SM CLR 25/16 A3017 RMK AO2
K2J9 182155Z AUTO 00000KT 10SM FEW042 26/16 A3017 RMK AO2
K2J9 182135Z AUTO VRB04KT 10SM FEW043 26/16 A3017 RMK AO2
K2J9 182115Z AUTO VRB03KT 10SM FEW042 26/16 A3017 RMK AO2
K2J9 182055Z AUTO 00000KT 10SM CLR 26/15 A3017 RMK AO2
K2J9 182035Z AUTO 00000KT 10SM CLR 26/15 A3017 RMK AO2
K2J9 182015Z AUTO 00000KT 10SM CLR 26/15 A3017 RMK AO2
K2J9 181955Z AUTO 00000G13KT 10SM CLR 26/15 A3017 RMK AO2
K2J9 181935Z AUTO 00000G11KT 10SM CLR 26/15 A3017 RMK AO2
K2J9 181915Z AUTO 00000KT 10SM CLR 25/15 A3018 RMK AO2
K2J9 181855Z AUTO VRB03G10KT 10SM CLR 25/15 A3018 RMK AO2
K2J9 181835Z AUTO VRB04G10KT 10SM CLR 25/15 A3018 RMK AO2
K2J9 181815Z AUTO VRB03G10KT 10SM CLR 25/15 A3019 RMK AO2
K2J9 181755Z AUTO 04003KT 10SM CLR 24/15 A3020 RMK AO2
K2J9 181735Z AUTO VRB04KT 10SM CLR 24/15 A3022 RMK AO2
K2J9 181715Z AUTO VRB05KT 10SM CLR 24/14 A3023 RMK AO2
K2J9 181655Z AUTO VRB03KT 10SM CLR 23/14 A3024 RMK AO2
K2J9 181635Z AUTO VRB06KT 350V080 10SM CLR 22/14 A3024 RMK AO2
K2J9 181615Z AUTO VRB05KT 10SM BKN038 22/13 A3025 RMK AO2
K2J9 181555Z AUTO 04005KT 10SM SCT039 20/13 A3026 RMK AO2
K2J9 181535Z AUTO VRB04KT 10SM CLR 20/12 A3026 RMK AO2
K2J9 181515Z AUTO 4.80000005G11KT 10SM CLR 19/12 A3026 RMK AO2
K2J9 181455Z AUTO 00000KT 10SM CLR 19/11 A3026 RMK AO2
K2J9 181435Z AUTO VRB04G13KT 10SM CLR 18/11 A3026 RMK AO2
K2J9 181415Z AUTO VRB03KT 10SM CLR 17/10 A3026 RMK AO2
K2J9 181355Z AUTO VRB05KT 10SM SCT030 16/10 A3026 RMK AO2
K2J9 181335Z AUTO 05004KT 10SM BKN030 15/09 A3025 RMK AO2
K2J9 181315Z AUTO VRB04KT CLR 14/09 A3025 RMK AO2
K2J9 181255Z AUTO VRB04KT 10SM CLR 13/08 A3025 RMK AO2
K2J9 181235Z AUTO 00000KT 10SM CLR 12/08 A3024 RMK AO2
K2J9 181215Z AUTO 00000KT 10SM CLR 11/07 A3023 RMK AO2
K2J9 181155Z AUTO 00000KT 10SM SCT022 SCT029 11/07 A3022 RMK AO2
K2J9 181135Z AUTO 00000KT 10SM OVC020 11/07 A3022 RMK AO2
K2J9 181115Z AUTO 00000KT 10SM OVC019 11/07 A3022 RMK AO2
K2J9 181055Z AUTO 00000KT 10SM OVC017 11/07 A3021 RMK AO2
K2J9 181035Z AUTO 00000KT 10SM BKN018 OVC024 11/07 A3021 RMK AO2
K2J9 181015Z AUTO 00000KT 10SM OVC017 11/07 A3021 RMK AO2
K2J9 180955Z AUTO 00000KT 10SM OVC017 11/07 A3020 RMK AO2
K2J9 180935Z AUTO 00000KT 10SM OVC017 11/07 A3020 RMK AO2
K2J9 180915Z AUTO VRB03KT 10SM OVC018 11/06 A3019 RMK AO2
K2J9 180855Z AUTO 00000KT 10SM OVC018 11/06 A3019 RMK AO2
K2J9 180835Z AUTO 00000KT 10SM OVC019 11/07 A3019 RMK AO2
K2J9 180815Z AUTO 00000KT 10SM OVC021 10/07 A3020 RMK AO2